Time;durP1;ratioP1;P1;durP2;ratioP2;P2;SDS_P1;SDS_P2;PMS_P1;PMS_P2;Temp;Humidity;BMP_temperature;BMP_pressure;BME280_temperature;BME280_humidity;BME280_pressure;Samples;Min_cycle;Max_cycle;Signal;HPM_P1;HPM_P2
2022/10/16 00:01:19;;;;;;;20.50;14.48;;;;;;;;;;2088795;28;20103;-75
2022/10/16 00:02:38;;;;;;;20.20;14.77;;;;;;;;;;2089281;28;20025;-75
2022/10/16 00:03:57;;;;;;;18.73;14.10;;;;;;;;;;2090712;28;20029;-75
2022/10/16 00:05:16;;;;;;;21.23;14.93;;;;;;;;;;2088758;28;20410;-75
2022/10/16 00:06:38;;;;;;;19.83;14.55;;;;;;;;;;2092115;28;20385;-72
2022/10/16 00:07:57;;;;;;;20.90;15.55;;;;;;;;;;2089087;28;20033;-73
2022/10/16 00:09:16;;;;;;;20.60;14.82;;;;;;;;;;2089375;28;20096;-73
2022/10/16 00:10:35;;;;;;;22.27;14.88;;;;;;;;;;2088945;28;20022;-73
2022/10/16 00:11:54;;;;;;;22.00;14.68;;;;;;;;;;2090744;28;20034;-74
2022/10/16 00:13:13;;;;;;;19.65;14.75;;;;;;;;;;2092868;28;20036;-73
2022/10/16 00:14:32;;;;;;;19.80;15.05;;;;;;;;;;2091267;28;20204;-73
2022/10/16 00:15:54;;;;;;;20.15;14.82;;;;;;;;;;2089267;28;20051;-74
2022/10/16 00:17:13;;;;;;;18.77;14.20;;;;;;;;;;2091684;28;20029;-73
2022/10/16 00:18:33;;;;;;;20.25;15.45;;;;;;;;;;2088905;28;20033;-73
2022/10/16 00:19:52;;;;;;;22.60;14.60;;;;;;;;;;2089179;28;20028;-73
2022/10/16 00:21:15;;;;;;;16.65;13.85;;;;;;;;;;2092146;28;20024;-74
2022/10/16 00:22:34;;;;;;;16.85;12.50;;;;;;;;;;2088022;28;20522;-74
2022/10/16 00:23:56;;;;;;;17.17;13.27;;;;;;;;;;2083830;28;20028;-74
2022/10/16 00:25:15;;;;;;;16.48;12.30;;;;;;;;;;2084773;28;20025;-75
2022/10/16 00:26:34;;;;;;;15.68;13.20;;;;;;;;;;2092300;28;20087;-74
2022/10/16 00:27:54;;;;;;;18.45;13.02;;;;;;;;;;2086348;28;20423;-75
2022/10/16 00:29:13;;;;;;;15.88;12.70;;;;;;;;;;2088169;28;20556;-73
2022/10/16 00:30:31;;;;;;;17.73;12.68;;;;;;;;;;2087258;28;20032;-75
2022/10/16 00:31:50;;;;;;;16.45;12.90;;;;;;;;;;2089432;28;20025;-74
2022/10/16 00:33:09;;;;;;;17.48;12.38;;;;;;;;;;2091499;28;20033;-74
2022/10/16 00:34:28;;;;;;;18.27;13.32;;;;;;;;;;2089771;28;20103;-74
2022/10/16 00:35:47;;;;;;;18.77;12.43;;;;;;;;;;2086100;28;20104;-74
2022/10/16 00:37:06;;;;;;;17.02;12.90;;;;;;;;;;2088425;28;20040;-73
2022/10/16 00:38:25;;;;;;;16.55;13.35;;;;;;;;;;2091702;28;20036;-74
2022/10/16 00:39:44;;;;;;;15.88;12.82;;;;;;;;;;2088667;28;20028;-74
2022/10/16 00:41:04;;;;;;;16.10;13.45;;;;;;;;;;2088822;28;20143;-71
2022/10/16 00:42:23;;;;;;;17.08;12.85;;;;;;;;;;2090380;28;20489;-74
2022/10/16 00:43:43;;;;;;;16.08;12.95;;;;;;;;;;2090196;28;20088;-74
2022/10/16 00:45:02;;;;;;;18.50;12.05;;;;;;;;;;2091137;28;20037;-71
2022/10/16 00:46:41;;;;;;;15.68;12.35;;;;;;;;;;2089480;28;20116;-75
2022/10/16 00:48:00;;;;;;;13.77;11.52;;;;;;;;;;2096061;28;20409;-76
2022/10/16 00:49:20;;;;;;;15.57;12.43;;;;;;;;;;2094153;28;20169;-74
2022/10/16 00:50:43;;;;;;;14.07;12.05;;;;;;;;;;2089454;28;20029;-72
2022/10/16 00:52:02;;;;;;;15.85;12.52;;;;;;;;;;2081175;28;20044;-72
2022/10/16 00:53:21;;;;;;;17.50;11.73;;;;;;;;;;2085369;28;20033;-73
2022/10/16 00:54:40;;;;;;;13.65;11.57;;;;;;;;;;2100454;28;20464;-74
2022/10/16 00:55:59;;;;;;;14.50;12.68;;;;;;;;;;2096393;28;20488;-74
2022/10/16 00:57:18;;;;;;;18.73;13.15;;;;;;;;;;2098313;28;20037;-74
2022/10/16 00:58:37;;;;;;;15.95;12.18;;;;;;;;;;2089921;28;20025;-74
2022/10/16 00:59:57;;;;;;;17.50;12.38;;;;;;;;;;2094444;28;20419;-74
2022/10/16 01:01:16;;;;;;;13.43;12.02;;;;;;;;;;2096579;28;20024;-72
2022/10/16 01:02:35;;;;;;;16.42;11.95;;;;;;;;;;2100467;28;20060;-73
2022/10/16 01:03:54;;;;;;;15.10;12.02;;;;;;;;;;2099928;28;20024;-74
2022/10/16 01:05:13;;;;;;;15.10;12.65;;;;;;;;;;2094786;28;20024;-74
2022/10/16 01:06:55;;;;;;;22.05;13.23;;;;;;;;;;2098494;28;20050;-73
2022/10/16 01:08:21;;;;;;;14.25;12.52;;;;;;;;;;2090768;28;20032;-74
2022/10/16 01:09:52;;;;;;;18.08;12.57;;;;;;;;;;2088909;28;20029;-74
2022/10/16 01:11:17;;;;;;;15.18;12.95;;;;;;;;;;2097896;28;20068;-75
2022/10/16 01:12:42;;;;;;;14.73;12.65;;;;;;;;;;2098492;28;20031;-74
2022/10/16 01:14:06;;;;;;;13.82;12.20;;;;;;;;;;2099878;28;20024;-73
2022/10/16 01:15:36;;;;;;;15.35;12.73;;;;;;;;;;2088342;28;20413;-74
2022/10/16 01:17:00;;;;;;;17.10;13.27;;;;;;;;;;2098470;28;20029;-74
2022/10/16 01:18:19;;;;;;;15.43;12.80;;;;;;;;;;2098779;28;20025;-74
2022/10/16 01:19:51;;;;;;;17.73;12.98;;;;;;;;;;2089655;28;20025;-74
2022/10/16 01:21:12;;;;;;;17.95;13.85;;;;;;;;;;2093380;28;20029;-74
2022/10/16 01:22:38;;;;;;;14.65;12.88;;;;;;;;;;2095875;28;20032;-73
2022/10/16 01:23:57;;;;;;;15.98;12.15;;;;;;;;;;2099311;28;20028;-74
2022/10/16 01:25:23;;;;;;;15.75;12.60;;;;;;;;;;2098903;28;20033;-73
2022/10/16 01:26:42;;;;;;;14.23;12.50;;;;;;;;;;2098668;28;20106;-74
2022/10/16 01:28:02;;;;;;;14.38;12.70;;;;;;;;;;2100246;28;20032;-75
2022/10/16 01:29:25;;;;;;;14.70;12.55;;;;;;;;;;2099656;28;20501;-74
2022/10/16 01:30:45;;;;;;;16.45;12.93;;;;;;;;;;2098126;28;20024;-75
2022/10/16 01:32:11;;;;;;;15.70;13.32;;;;;;;;;;2098328;28;20028;-75
2022/10/16 01:33:35;;;;;;;15.15;13.20;;;;;;;;;;2095463;28;20064;-75
2022/10/16 01:34:58;;;;;;;15.23;12.60;;;;;;;;;;2098803;28;20502;-75
2022/10/16 01:36:17;;;;;;;;;;;;;;;;;;2091102;28;20025;-75
2022/10/16 01:37:46;;;;;;;16.40;12.98;;;;;;;;;;2095168;28;19912;-74
2022/10/16 01:39:06;;;;;;;15.10;13.30;;;;;;;;;;2091362;28;20021;-74
2022/10/16 01:40:27;;;;;;;13.73;11.52;;;;;;;;;;2095766;28;20377;-73
2022/10/16 01:41:48;;;;;;;14.77;12.25;;;;;;;;;;2088981;28;20036;-75
2022/10/16 01:43:22;;;;;;;17.13;12.05;;;;;;;;;;2090542;28;20422;-75
2022/10/16 01:44:42;;;;;;;15.80;12.45;;;;;;;;;;2089690;28;20041;-74
2022/10/16 01:46:01;;;;;;;17.85;13.05;;;;;;;;;;2095577;28;20036;-75
2022/10/16 01:47:22;;;;;;;19.85;12.98;;;;;;;;;;2096353;28;20112;-76
2022/10/16 01:48:42;;;;;;;14.15;12.65;;;;;;;;;;2091206;28;20029;-73
2022/10/16 01:50:04;;;;;;;13.43;12.00;;;;;;;;;;2095608;28;20032;-74
2022/10/16 01:51:24;;;;;;;16.50;12.35;;;;;;;;;;2097284;28;20025;-74
2022/10/16 01:52:45;;;;;;;14.57;11.38;;;;;;;;;;2090047;28;20044;-75
2022/10/16 01:54:06;;;;;;;17.05;12.65;;;;;;;;;;2089555;28;20056;-74
2022/10/16 01:55:33;;;;;;;16.15;11.95;;;;;;;;;;2094901;28;20040;-74
2022/10/16 01:56:53;;;;;;;13.70;11.38;;;;;;;;;;2091323;28;20509;-74
2022/10/16 01:58:13;;;;;;;14.07;12.60;;;;;;;;;;2096751;28;20040;-74
2022/10/16 01:59:33;;;;;;;13.90;11.73;;;;;;;;;;2091321;28;20017;-74
2022/10/16 02:00:53;;;;;;;11.88;10.60;;;;;;;;;;2095186;28;20057;-74
2022/10/16 02:02:13;;;;;;;12.85;11.63;;;;;;;;;;2098550;28;20032;-75
2022/10/16 02:03:33;;;;;;;14.35;11.10;;;;;;;;;;2091270;28;20280;-73
2022/10/16 02:04:54;;;;;;;11.68;10.60;;;;;;;;;;2085841;28;20025;-74
2022/10/16 02:06:14;;;;;;;13.23;11.57;;;;;;;;;;2095637;28;20028;-74
2022/10/16 02:07:33;;;;;;;12.48;10.73;;;;;;;;;;2097234;28;20322;-74
2022/10/16 02:08:53;;;;;;;11.77;10.38;;;;;;;;;;2099485;28;20028;-75
2022/10/16 02:10:12;;;;;;;12.25;10.68;;;;;;;;;;2093657;28;20646;-75
2022/10/16 02:11:31;;;;;;;13.00;11.60;;;;;;;;;;2095087;28;20060;-74
2022/10/16 02:12:59;;;;;;;11.70;10.50;;;;;;;;;;2099029;28;20107;-75
2022/10/16 02:14:18;;;;;;;16.50;12.48;;;;;;;;;;2092028;28;20509;-73
2022/10/16 02:15:38;;;;;;;12.35;11.13;;;;;;;;;;2096936;28;20024;-74
2022/10/16 02:16:57;;;;;;;14.05;11.70;;;;;;;;;;2089841;28;20473;-74
2022/10/16 02:18:16;;;;;;;13.90;11.63;;;;;;;;;;2096766;28;20032;-74
2022/10/16 02:19:35;;;;;;;13.13;11.20;;;;;;;;;;2088941;28;20029;-73
2022/10/16 02:20:59;;;;;;;14.90;11.85;;;;;;;;;;2097172;28;20021;-74
2022/10/16 02:22:22;;;;;;;15.55;11.43;;;;;;;;;;2088620;28;20506;-74
2022/10/16 02:23:44;;;;;;;14.85;11.45;;;;;;;;;;2095898;28;20035;-75
2022/10/16 02:25:11;;;;;;;13.25;11.20;;;;;;;;;;2099208;28;20115;-74
2022/10/16 02:26:37;;;;;;;12.48;10.52;;;;;;;;;;2101369;28;20024;-75
2022/10/16 02:28:00;;;;;;;14.27;10.98;;;;;;;;;;2097350;28;20058;-74
2022/10/16 02:29:23;;;;;;;12.82;10.80;;;;;;;;;;2091546;28;20041;-74
2022/10/16 02:30:45;;;;;;;14.18;10.77;;;;;;;;;;2093638;28;20025;-74
2022/10/16 02:32:05;;;;;;;14.55;11.00;;;;;;;;;;2088081;28;20033;-74
2022/10/16 02:33:25;;;;;;;14.68;11.30;;;;;;;;;;2096192;28;20052;-72
2022/10/16 02:34:45;;;;;;;18.17;11.55;;;;;;;;;;2101360;28;20583;-74
2022/10/16 02:36:04;;;;;;;12.73;11.10;;;;;;;;;;2099936;28;20025;-73
2022/10/16 02:37:23;;;;;;;12.75;11.32;;;;;;;;;;2088154;28;20025;-74
2022/10/16 02:38:42;;;;;;;16.48;10.82;;;;;;;;;;2090096;28;20044;-75
2022/10/16 02:40:02;;;;;;;14.23;11.35;;;;;;;;;;2086277;28;20047;-74
2022/10/16 02:41:22;;;;;;;13.70;10.38;;;;;;;;;;2093742;28;20115;-74
2022/10/16 02:42:42;;;;;;;13.77;11.40;;;;;;;;;;2098477;28;20028;-75
2022/10/16 02:44:01;;;;;;;12.48;11.27;;;;;;;;;;2099498;28;20436;-75
2022/10/16 02:45:20;;;;;;;12.80;10.63;;;;;;;;;;2089865;28;20025;-75
2022/10/16 02:46:39;;;;;;;13.55;10.98;;;;;;;;;;2097615;28;20032;-75
2022/10/16 02:47:58;;;;;;;14.32;11.25;;;;;;;;;;2098338;28;20040;-74
2022/10/16 02:49:17;;;;;;;11.93;10.50;;;;;;;;;;2098930;28;20033;-74
2022/10/16 02:50:36;;;;;;;14.60;10.60;;;;;;;;;;2098378;28;20036;-74
2022/10/16 02:51:55;;;;;;;12.90;10.27;;;;;;;;;;2093694;28;20025;-72
2022/10/16 02:53:14;;;;;;;14.13;10.73;;;;;;;;;;2095617;28;20392;-74
2022/10/16 02:54:33;;;;;;;12.85;10.30;;;;;;;;;;2097608;28;20463;-75
2022/10/16 02:55:52;;;;;;;12.02;10.40;;;;;;;;;;2098248;28;20040;-75
2022/10/16 02:57:11;;;;;;;13.57;10.55;;;;;;;;;;2100748;28;20427;-72
2022/10/16 02:58:30;;;;;;;13.07;10.35;;;;;;;;;;2099238;28;20036;-75
2022/10/16 02:59:49;;;;;;;12.93;11.00;;;;;;;;;;2096667;28;20388;-74
2022/10/16 03:01:08;;;;;;;14.07;11.13;;;;;;;;;;2089703;28;20025;-74
2022/10/16 03:02:27;;;;;;;11.40;10.30;;;;;;;;;;2096269;28;20495;-74
2022/10/16 03:03:46;;;;;;;11.82;10.57;;;;;;;;;;2098190;28;20084;-74
2022/10/16 03:05:05;;;;;;;11.88;10.63;;;;;;;;;;2101446;28;20038;-74
2022/10/16 03:06:24;;;;;;;11.65;10.43;;;;;;;;;;2089135;28;20033;-74
2022/10/16 03:07:43;;;;;;;12.15;10.90;;;;;;;;;;2083429;28;20156;-74
2022/10/16 03:09:02;;;;;;;10.88;9.35;;;;;;;;;;2094716;28;20072;-74
2022/10/16 03:10:21;;;;;;;13.15;10.23;;;;;;;;;;2102223;28;20024;-75
2022/10/16 03:11:40;;;;;;;13.38;10.27;;;;;;;;;;2099107;28;20032;-75
2022/10/16 03:12:59;;;;;;;11.88;10.15;;;;;;;;;;2096466;28;20029;-73
2022/10/16 03:14:18;;;;;;;13.73;10.57;;;;;;;;;;2096687;28;20076;-74
2022/10/16 03:15:37;;;;;;;12.07;10.85;;;;;;;;;;2089363;28;20037;-75
2022/10/16 03:16:56;;;;;;;11.57;10.07;;;;;;;;;;2086238;28;20032;-73
2022/10/16 03:18:14;;;;;;;11.02;9.93;;;;;;;;;;2094582;28;20107;-73
2022/10/16 03:19:34;;;;;;;11.70;9.85;;;;;;;;;;2094754;28;20401;-72
2022/10/16 03:20:53;;;;;;;10.68;9.70;;;;;;;;;;2099182;28;20032;-74
2022/10/16 03:22:12;;;;;;;10.77;9.40;;;;;;;;;;2095533;28;20033;-74
2022/10/16 03:23:31;;;;;;;13.70;10.55;;;;;;;;;;2089283;28;20021;-74
2022/10/16 03:24:49;;;;;;;11.65;9.50;;;;;;;;;;2095857;28;20119;-75
2022/10/16 03:26:08;;;;;;;10.57;9.48;;;;;;;;;;2090735;28;20032;-74
2022/10/16 03:27:27;;;;;;;10.88;9.35;;;;;;;;;;2092985;28;20028;-75
2022/10/16 03:28:46;;;;;;;13.88;10.20;;;;;;;;;;2098638;28;20036;-73
2022/10/16 03:30:05;;;;;;;10.60;9.30;;;;;;;;;;2088229;28;20040;-73
2022/10/16 03:31:24;;;;;;;12.07;9.63;;;;;;;;;;2095685;28;20032;-73
2022/10/16 03:32:44;;;;;;;11.23;10.10;;;;;;;;;;2100421;28;20385;-74
2022/10/16 03:34:03;;;;;;;15.60;10.43;;;;;;;;;;2088022;28;20588;-74
2022/10/16 03:35:22;;;;;;;12.25;9.88;;;;;;;;;;2087086;28;20029;-74
2022/10/16 03:36:41;;;;;;;10.80;9.80;;;;;;;;;;2096125;28;20095;-74
2022/10/16 03:38:00;;;;;;;11.07;9.15;;;;;;;;;;2090399;28;20032;-74
2022/10/16 03:39:19;;;;;;;14.85;10.45;;;;;;;;;;2085054;28;20116;-74
2022/10/16 03:40:38;;;;;;;10.55;9.48;;;;;;;;;;2087611;28;20412;-75
2022/10/16 03:41:57;;;;;;;14.50;9.55;;;;;;;;;;2095181;28;20025;-75
2022/10/16 03:43:16;;;;;;;11.13;9.80;;;;;;;;;;2090302;28;20100;-73
2022/10/16 03:44:35;;;;;;;11.18;9.82;;;;;;;;;;2096654;28;20115;-75
2022/10/16 03:45:54;;;;;;;12.60;9.43;;;;;;;;;;2097497;28;20028;-75
2022/10/16 03:47:13;;;;;;;10.48;9.38;;;;;;;;;;2097152;28;20396;-73
2022/10/16 03:48:32;;;;;;;10.27;8.88;;;;;;;;;;2097308;28;20500;-74
2022/10/16 03:49:51;;;;;;;10.35;9.10;;;;;;;;;;2100278;28;20059;-73
2022/10/16 03:51:10;;;;;;;10.35;8.82;;;;;;;;;;2090232;28;20041;-74
2022/10/16 03:52:29;;;;;;;10.10;9.10;;;;;;;;;;2093165;28;20037;-72
2022/10/16 03:53:48;;;;;;;11.57;9.25;;;;;;;;;;2095810;28;20420;-74
2022/10/16 03:55:07;;;;;;;9.95;8.80;;;;;;;;;;2099955;28;20043;-72
2022/10/16 03:56:26;;;;;;;10.18;8.63;;;;;;;;;;2092129;28;20020;-74
2022/10/16 03:57:45;;;;;;;12.32;9.43;;;;;;;;;;2094820;28;20104;-74
2022/10/16 03:59:04;;;;;;;10.38;8.98;;;;;;;;;;2097121;28;20363;-75
2022/10/16 04:00:23;;;;;;;9.95;8.55;;;;;;;;;;2088241;28;20029;-74
2022/10/16 04:01:42;;;;;;;8.98;8.10;;;;;;;;;;2094027;28;20019;-75
2022/10/16 04:03:01;;;;;;;9.88;8.88;;;;;;;;;;2089768;28;20107;-76
2022/10/16 04:04:19;;;;;;;10.60;8.95;;;;;;;;;;2088587;28;20040;-73
2022/10/16 04:05:39;;;;;;;9.32;8.43;;;;;;;;;;2094642;28;20024;-74
2022/10/16 04:06:58;;;;;;;11.10;8.95;;;;;;;;;;2091699;28;20457;-75
2022/10/16 04:08:17;;;;;;;8.85;8.13;;;;;;;;;;2096348;28;20024;-75
2022/10/16 04:09:36;;;;;;;9.02;8.07;;;;;;;;;;2094461;28;20040;-75
2022/10/16 04:10:55;;;;;;;12.43;8.10;;;;;;;;;;2091031;28;20095;-73
2022/10/16 04:12:13;;;;;;;8.38;7.68;;;;;;;;;;2095178;28;20037;-74
2022/10/16 04:13:32;;;;;;;8.68;7.68;;;;;;;;;;2097787;28;20768;-75
2022/10/16 04:14:52;;;;;;;8.65;7.80;;;;;;;;;;2097310;28;20879;-75
2022/10/16 04:16:11;;;;;;;9.13;8.27;;;;;;;;;;2089517;28;20491;-74
2022/10/16 04:17:30;;;;;;;9.07;8.02;;;;;;;;;;2094037;28;20024;-74
2022/10/16 04:18:49;;;;;;;8.57;7.70;;;;;;;;;;2098474;28;20020;-74
2022/10/16 04:20:08;;;;;;;8.02;7.20;;;;;;;;;;2089831;28;20020;-74
2022/10/16 04:21:27;;;;;;;9.07;8.15;;;;;;;;;;2081641;28;20029;-74
2022/10/16 04:22:46;;;;;;;7.82;7.10;;;;;;;;;;2092423;28;20020;-75
2022/10/16 04:24:05;;;;;;;8.05;7.28;;;;;;;;;;2087009;28;20033;-75
2022/10/16 04:25:23;;;;;;;10.52;8.32;;;;;;;;;;2090834;28;20445;-74
2022/10/16 04:26:42;;;;;;;9.00;7.38;;;;;;;;;;2099379;28;20523;-74
2022/10/16 04:28:01;;;;;;;7.90;7.13;;;;;;;;;;2097570;28;20028;-75
2022/10/16 04:29:20;;;;;;;12.00;7.70;;;;;;;;;;2097906;28;20648;-74
2022/10/16 04:30:39;;;;;;;8.05;7.45;;;;;;;;;;2095656;28;20473;-74
2022/10/16 04:31:58;;;;;;;13.85;7.15;;;;;;;;;;2098125;28;20392;-73
2022/10/16 04:33:17;;;;;;;8.43;7.72;;;;;;;;;;2098390;28;20512;-74
2022/10/16 04:34:38;;;;;;;7.88;7.10;;;;;;;;;;2091765;28;20413;-75
2022/10/16 04:35:58;;;;;;;9.68;7.55;;;;;;;;;;2096454;28;20020;-74
2022/10/16 04:37:17;;;;;;;8.45;7.60;;;;;;;;;;2098710;28;20021;-74
2022/10/16 04:38:37;;;;;;;7.93;7.22;;;;;;;;;;2092528;28;20440;-75
2022/10/16 04:39:56;;;;;;;8.38;7.32;;;;;;;;;;2086496;28;20524;-74
2022/10/16 04:41:15;;;;;;;8.13;7.32;;;;;;;;;;2094631;28;20029;-72
2022/10/16 04:42:34;;;;;;;7.55;6.93;;;;;;;;;;2099028;28;20029;-74
2022/10/16 04:43:53;;;;;;;8.25;7.47;;;;;;;;;;2098805;28;20036;-74
2022/10/16 04:45:12;;;;;;;7.72;6.82;;;;;;;;;;2096573;28;20118;-74
2022/10/16 04:46:31;;;;;;;7.88;7.10;;;;;;;;;;2101812;28;20025;-74
2022/10/16 04:47:50;;;;;;;7.43;6.75;;;;;;;;;;2089030;28;20590;-74
2022/10/16 04:49:08;;;;;;;10.43;7.45;;;;;;;;;;2094622;28;20032;-74
2022/10/16 04:50:27;;;;;;;7.85;6.90;;;;;;;;;;2086344;28;20493;-73
2022/10/16 04:51:46;;;;;;;7.47;6.78;;;;;;;;;;2095379;28;20493;-74
2022/10/16 04:53:06;;;;;;;6.97;6.38;;;;;;;;;;2100269;28;20041;-73
2022/10/16 04:54:24;;;;;;;7.88;7.10;;;;;;;;;;2097403;28;20036;-73
2022/10/16 04:55:44;;;;;;;10.40;7.53;;;;;;;;;;2096368;28;20028;-74
2022/10/16 04:57:04;;;;;;;7.50;6.90;;;;;;;;;;2099819;28;20037;-74
2022/10/16 04:58:23;;;;;;;6.90;6.40;;;;;;;;;;2093602;28;20054;-73
2022/10/16 04:59:42;;;;;;;8.70;7.20;;;;;;;;;;2092870;28;20024;-74
2022/10/16 05:01:01;;;;;;;9.32;7.25;;;;;;;;;;2098986;28;20031;-74
2022/10/16 05:02:20;;;;;;;7.88;6.82;;;;;;;;;;2101604;28;20414;-73
2022/10/16 05:03:39;;;;;;;7.82;7.00;;;;;;;;;;2096539;28;20067;-74
2022/10/16 05:04:58;;;;;;;9.52;7.40;;;;;;;;;;2099203;28;20110;-74
2022/10/16 05:06:17;;;;;;;7.50;6.40;;;;;;;;;;2098552;28;20036;-74
2022/10/16 05:07:36;;;;;;;7.95;6.00;;;;;;;;;;2089410;28;20408;-74
2022/10/16 05:08:55;;;;;;;7.95;6.30;;;;;;;;;;2086730;28;20037;-74
2022/10/16 05:10:14;;;;;;;6.53;5.90;;;;;;;;;;2094405;28;20028;-73
2022/10/16 05:11:33;;;;;;;6.63;5.97;;;;;;;;;;2099751;28;20579;-73
2022/10/16 05:12:52;;;;;;;6.72;6.22;;;;;;;;;;2100396;28;20032;-74
2022/10/16 05:14:11;;;;;;;6.63;6.13;;;;;;;;;;2089283;28;20040;-72
2022/10/16 05:15:30;;;;;;;9.00;7.13;;;;;;;;;;2087573;28;20482;-73
2022/10/16 05:16:50;;;;;;;9.40;6.90;;;;;;;;;;2097015;28;20453;-73
2022/10/16 05:18:09;;;;;;;6.93;6.22;;;;;;;;;;2088287;28;20025;-74
2022/10/16 05:19:28;;;;;;;9.13;6.20;;;;;;;;;;2087866;28;20020;-73
2022/10/16 05:20:47;;;;;;;6.97;6.28;;;;;;;;;;2089151;28;20112;-72
2022/10/16 05:22:05;;;;;;;6.75;6.20;;;;;;;;;;2084778;28;20052;-72
2022/10/16 05:23:24;;;;;;;6.97;6.30;;;;;;;;;;2084863;28;20416;-73
2022/10/16 05:24:43;;;;;;;8.68;6.38;;;;;;;;;;2096490;28;20048;-73
2022/10/16 05:26:02;;;;;;;7.72;6.00;;;;;;;;;;2097918;28;20032;-73
2022/10/16 05:27:21;;;;;;;7.30;6.57;;;;;;;;;;2098395;28;20028;-73
2022/10/16 05:28:40;;;;;;;7.65;6.22;;;;;;;;;;2103131;28;20032;-74
2022/10/16 05:29:59;;;;;;;7.45;6.75;;;;;;;;;;2089167;28;20062;-74
2022/10/16 05:31:18;;;;;;;7.88;6.93;;;;;;;;;;2086567;28;20033;-74
2022/10/16 05:32:37;;;;;;;9.40;6.97;;;;;;;;;;2095233;28;20041;-74
2022/10/16 05:33:59;;;;;;;7.05;6.35;;;;;;;;;;2099326;28;20044;-74
2022/10/16 05:35:18;;;;;;;;;;;;;;;;;;2090064;28;20452;-73
2022/10/16 05:36:37;;;;;;;8.07;7.20;;;;;;;;;;2090523;28;19917;-74
2022/10/16 05:37:56;;;;;;;8.70;7.72;;;;;;;;;;2087542;28;20029;-74
2022/10/16 05:39:15;;;;;;;9.77;7.35;;;;;;;;;;2089002;28;20024;-72
2022/10/16 05:40:35;;;;;;;8.63;7.45;;;;;;;;;;2095640;28;20024;-74
2022/10/16 05:41:53;;;;;;;8.45;7.15;;;;;;;;;;2098693;28;20375;-74
2022/10/16 05:43:13;;;;;;;8.27;7.40;;;;;;;;;;2099165;28;20027;-73
2022/10/16 05:44:32;;;;;;;8.55;7.68;;;;;;;;;;2097369;28;20032;-73
2022/10/16 05:45:55;;;;;;;7.97;7.28;;;;;;;;;;2088336;28;20393;-74
2022/10/16 05:47:14;;;;;;;;;;;;;;;;;;2096231;28;20536;-73
2022/10/16 05:48:33;;;;;;;10.32;7.57;;;;;;;;;;2100422;28;19991;-73
2022/10/16 05:49:53;;;;;;;8.88;7.97;;;;;;;;;;2089440;28;20041;-74
2022/10/16 05:51:12;;;;;;;10.73;8.00;;;;;;;;;;2085432;28;20029;-73
2022/10/16 05:52:31;;;;;;;9.90;8.55;;;;;;;;;;2096569;28;20040;-74
2022/10/16 05:53:51;;;;;;;12.68;8.40;;;;;;;;;;2088954;28;20574;-73
2022/10/16 05:55:11;;;;;;;12.25;8.65;;;;;;;;;;2097331;28;20032;-74
2022/10/16 05:56:30;;;;;;;10.80;8.27;;;;;;;;;;2091220;28;20088;-74
2022/10/16 05:57:48;;;;;;;10.02;8.98;;;;;;;;;;2089347;28;20025;-74
2022/10/16 05:59:07;;;;;;;12.10;8.95;;;;;;;;;;2095999;28;20028;-74
2022/10/16 06:00:26;;;;;;;11.23;9.15;;;;;;;;;;2087573;28;20506;-73
2022/10/16 06:01:45;;;;;;;10.25;9.20;;;;;;;;;;2088807;28;21043;-73
2022/10/16 06:03:06;;;;;;;11.63;9.45;;;;;;;;;;2100874;28;20036;-74
2022/10/16 06:04:25;;;;;;;13.25;9.27;;;;;;;;;;2100060;28;20028;-74
2022/10/16 06:05:44;;;;;;;17.85;9.20;;;;;;;;;;2089084;28;20070;-74
2022/10/16 06:07:03;;;;;;;8.93;7.97;;;;;;;;;;2086398;28;20029;-74
2022/10/16 06:08:22;;;;;;;10.05;9.05;;;;;;;;;;2093572;28;20020;-73
2022/10/16 06:09:41;;;;;;;13.98;8.80;;;;;;;;;;2090105;28;20032;-74
2022/10/16 06:11:04;;;;;;;11.43;9.07;;;;;;;;;;2088706;28;20033;-74
2022/10/16 06:12:23;;;;;;;10.07;8.80;;;;;;;;;;2096134;28;20033;-74
2022/10/16 06:13:42;;;;;;;10.52;9.43;;;;;;;;;;2100331;28;20024;-74
2022/10/16 06:15:01;;;;;;;11.02;9.43;;;;;;;;;;2099080;28;20021;-74
2022/10/16 06:16:20;;;;;;;12.15;9.50;;;;;;;;;;2091335;28;20556;-73
2022/10/16 06:17:39;;;;;;;14.50;10.35;;;;;;;;;;2095994;28;20033;-75
2022/10/16 06:18:59;;;;;;;14.35;9.20;;;;;;;;;;2101392;28;20024;-74
2022/10/16 06:20:18;;;;;;;16.20;10.93;;;;;;;;;;2100541;28;20024;-75
2022/10/16 06:21:37;;;;;;;11.57;10.25;;;;;;;;;;2096711;28;20036;-73
2022/10/16 06:22:56;;;;;;;12.23;10.70;;;;;;;;;;2097532;28;20033;-74
2022/10/16 06:24:15;;;;;;;14.40;10.98;;;;;;;;;;2090433;28;20025;-74
2022/10/16 06:25:35;;;;;;;15.65;11.60;;;;;;;;;;2094312;28;20771;-74
2022/10/16 06:26:54;;;;;;;13.75;11.23;;;;;;;;;;2088936;28;20119;-74
2022/10/16 06:28:13;;;;;;;13.70;11.50;;;;;;;;;;2092570;28;20033;-74
2022/10/16 06:29:33;;;;;;;13.93;11.35;;;;;;;;;;2089738;28;20033;-74
2022/10/16 06:30:58;;;;;;;16.15;13.50;;;;;;;;;;2094563;28;20588;-73
2022/10/16 06:32:18;;;;;;;16.42;13.10;;;;;;;;;;2090767;28;20028;-73
2022/10/16 06:33:37;;;;;;;15.65;11.90;;;;;;;;;;2094403;28;20063;-73
2022/10/16 06:34:56;;;;;;;16.38;12.65;;;;;;;;;;2099805;28;20029;-73
2022/10/16 06:36:17;;;;;;;18.30;12.32;;;;;;;;;;2098422;28;20036;-74
2022/10/16 06:37:35;;;;;;;15.02;12.63;;;;;;;;;;2098724;28;20037;-75
2022/10/16 06:38:54;;;;;;;13.15;11.75;;;;;;;;;;2098873;28;20033;-74
2022/10/16 06:40:14;;;;;;;14.60;12.98;;;;;;;;;;2096663;28;20056;-74
2022/10/16 06:41:33;;;;;;;14.90;12.50;;;;;;;;;;2090145;28;20029;-76
2022/10/16 06:42:54;;;;;;;16.88;14.00;;;;;;;;;;2095844;28;20028;-73
2022/10/16 06:44:13;;;;;;;16.40;13.02;;;;;;;;;;2099024;28;20040;-74
2022/10/16 06:45:32;;;;;;;15.43;12.35;;;;;;;;;;2095980;28;20048;-73
2022/10/16 06:46:51;;;;;;;14.70;11.80;;;;;;;;;;2096763;28;20021;-72
2022/10/16 06:48:10;;;;;;;16.42;13.05;;;;;;;;;;2100018;28;20029;-70
2022/10/16 06:49:29;;;;;;;15.50;13.60;;;;;;;;;;2100124;28;20024;-75
2022/10/16 06:50:57;;;;;;;19.75;12.80;;;;;;;;;;2087099;28;20025;-74
2022/10/16 06:52:16;;;;;;;14.73;13.02;;;;;;;;;;2095276;28;20484;-74
2022/10/16 06:53:36;;;;;;;16.67;12.93;;;;;;;;;;2088253;28;20028;-73
2022/10/16 06:54:55;;;;;;;15.18;13.30;;;;;;;;;;2084447;28;20126;-75
2022/10/16 06:56:24;;;;;;;15.32;12.55;;;;;;;;;;2096625;28;20027;-74
2022/10/16 06:57:43;;;;;;;18.25;13.40;;;;;;;;;;2091538;28;20041;-73
2022/10/16 06:59:02;;;;;;;15.85;13.10;;;;;;;;;;2081094;28;20088;-72
2022/10/16 07:00:21;;;;;;;15.63;12.25;;;;;;;;;;2083374;28;20033;-72
2022/10/16 07:01:40;;;;;;;18.13;13.63;;;;;;;;;;2095629;28;20056;-74
2022/10/16 07:02:59;;;;;;;17.95;12.88;;;;;;;;;;2097297;28;20901;-74
2022/10/16 07:04:17;;;;;;;15.13;12.75;;;;;;;;;;2092558;28;20033;-74
2022/10/16 07:05:40;;;;;;;16.40;12.60;;;;;;;;;;2096476;28;20016;-74
2022/10/16 07:07:00;;;;;;;18.63;13.18;;;;;;;;;;2089115;28;20048;-71
2022/10/16 07:08:19;;;;;;;20.98;12.85;;;;;;;;;;2089382;28;20033;-73
2022/10/16 07:09:39;;;;;;;15.40;12.75;;;;;;;;;;2088068;28;20028;-72
2022/10/16 07:11:03;;;;;;;19.15;12.55;;;;;;;;;;2087797;28;20512;-72
2022/10/16 07:12:21;;;;;;;16.60;13.23;;;;;;;;;;2093813;28;20036;-72
2022/10/16 07:13:41;;;;;;;13.15;11.80;;;;;;;;;;2097391;28;20481;-75
2022/10/16 07:15:00;;;;;;;13.63;12.05;;;;;;;;;;2088286;28;20486;-75
2022/10/16 07:16:20;;;;;;;18.38;12.52;;;;;;;;;;2093143;28;20042;-74
2022/10/16 07:17:39;;;;;;;19.13;11.18;;;;;;;;;;2100295;28;20021;-74
2022/10/16 07:18:59;;;;;;;12.60;10.85;;;;;;;;;;2099783;28;20032;-75
2022/10/16 07:20:18;;;;;;;16.58;10.80;;;;;;;;;;2090208;28;20021;-75
2022/10/16 07:21:37;;;;;;;17.40;12.57;;;;;;;;;;2090405;28;20037;-73
2022/10/16 07:23:08;;;;;;;12.68;10.88;;;;;;;;;;2096508;28;20484;-72
2022/10/16 07:24:31;;;;;;;13.70;10.80;;;;;;;;;;2091391;28;20081;-74
2022/10/16 07:26:07;;;;;;;13.48;10.40;;;;;;;;;;2097326;28;20036;-76
2022/10/16 07:27:27;;;;;;;16.70;10.35;;;;;;;;;;2089618;28;20049;-74
2022/10/16 07:28:47;;;;;;;12.07;10.02;;;;;;;;;;2084512;28;20033;-73
2022/10/16 07:30:06;;;;;;;13.65;10.93;;;;;;;;;;2084388;28;20453;-73
2022/10/16 07:31:25;;;;;;;12.23;10.75;;;;;;;;;;2097507;28;20485;-73
2022/10/16 07:32:44;;;;;;;13.80;9.70;;;;;;;;;;2089910;28;20032;-75
2022/10/16 07:34:03;;;;;;;10.80;9.73;;;;;;;;;;2095336;28;20096;-72
2022/10/16 07:35:22;;;;;;;11.35;10.05;;;;;;;;;;2098281;28;20040;-73
2022/10/16 07:36:41;;;;;;;12.25;9.98;;;;;;;;;;2088137;28;20017;-72
2022/10/16 07:37:59;;;;;;;11.57;9.98;;;;;;;;;;2095276;28;20029;-72
2022/10/16 07:39:19;;;;;;;10.38;8.65;;;;;;;;;;2096646;28;20485;-73
2022/10/16 07:40:38;;;;;;;11.80;9.32;;;;;;;;;;2098229;28;20024;-71
2022/10/16 07:41:57;;;;;;;10.40;9.23;;;;;;;;;;2090152;28;20103;-72
2022/10/16 07:43:16;;;;;;;10.35;8.55;;;;;;;;;;2096958;28;20028;-73
2022/10/16 07:44:34;;;;;;;9.18;8.43;;;;;;;;;;2100181;28;20028;-74
2022/10/16 07:45:54;;;;;;;9.65;8.55;;;;;;;;;;2089840;28;20041;-73
2022/10/16 07:47:13;;;;;;;10.65;8.38;;;;;;;;;;2090648;28;20079;-74
2022/10/16 07:48:33;;;;;;;10.50;8.73;;;;;;;;;;2086327;28;20024;-73
2022/10/16 07:49:52;;;;;;;10.07;8.23;;;;;;;;;;2096554;28;20045;-73
2022/10/16 07:51:15;;;;;;;11.32;8.00;;;;;;;;;;2090408;28;20028;-75